createdAt,value
2017-10-27T00:00:11.368Z,29.8
2017-10-27T00:01:13.396Z,29.8
2017-10-27T00:02:11.519Z,29.8
2017-10-27T00:03:11.948Z,29.8
2017-10-27T00:04:13.300Z,29.8
2017-10-27T00:05:11.720Z,29.8
2017-10-27T00:06:11.777Z,29.8
2017-10-27T00:07:11.780Z,29.8
2017-10-27T00:08:13.361Z,29.8
2017-10-27T00:09:12.137Z,29.8
2017-10-27T00:10:13.760Z,29.8
2017-10-27T00:11:13.531Z,29.8
2017-10-27T00:12:11.933Z,29.8
2017-10-27T00:13:13.972Z,29.8
2017-10-27T00:14:13.751Z,29.8
2017-10-27T00:15:12.518Z,29.7
2017-10-27T00:16:12.575Z,29.8
2017-10-27T00:17:13.901Z,29.8
2017-10-27T00:18:14.228Z,29.8
2017-10-27T00:19:13.961Z,29.8
2017-10-27T00:20:14.330Z,29.8
2017-10-27T00:21:14.347Z,29.8
2017-10-27T00:22:14.138Z,29.8
2017-10-27T00:23:12.530Z,29.8
2017-10-27T00:24:14.549Z,29.8
2017-10-27T00:25:14.258Z,29.8
2017-10-27T00:26:14.657Z,29.7
2017-10-27T00:27:14.677Z,29.8
2017-10-27T00:28:12.787Z,29.8
2017-10-27T00:29:14.493Z,29.7
2017-10-27T00:30:14.515Z,29.8
2017-10-27T00:31:14.896Z,29.8
2017-10-27T00:32:13.310Z,29.8
2017-10-27T00:33:13.002Z,29.8
2017-10-27T00:34:13.023Z,29.8
2017-10-27T00:35:15.062Z,29.8
2017-10-27T00:36:15.080Z,29.8
2017-10-27T00:37:13.267Z,29.8
2017-10-27T00:38:15.281Z,29.7
2017-10-27T00:39:54.791Z,29.8
2017-10-27T00:40:54.515Z,29.7
2017-10-27T00:41:55.015Z,29.7
2017-10-27T00:42:52.992Z,29.7
2017-10-27T00:43:53.470Z,29.7
2017-10-27T00:44:55.070Z,29.7
2017-10-27T00:45:55.024Z,29.7
2017-10-27T00:46:54.778Z,29.7
2017-10-27T00:47:54.850Z,29.7
2017-10-27T00:48:54.903Z,29.7
2017-10-27T00:49:53.663Z,29.7
2017-10-27T00:50:55.358Z,29.7
2017-10-27T00:51:53.484Z,29.7
2017-10-27T00:52:55.031Z,29.7
2017-10-27T00:53:55.075Z,29.7
2017-10-27T00:54:55.465Z,29.7
2017-10-27T00:55:55.188Z,29.7
2017-10-27T00:56:53.908Z,29.7
2017-10-27T00:57:55.598Z,29.7
2017-10-27T00:58:53.995Z,29.7
2017-10-27T00:59:55.668Z,29.7
2017-10-27T01:00:54.291Z,29.7
2017-10-27T01:01:53.834Z,29.7
2017-10-27T01:02:53.898Z,29.7
2017-10-27T01:03:55.624Z,29.7
2017-10-27T01:04:55.648Z,29.7
2017-10-27T01:05:54.353Z,29.7
2017-10-27T01:06:55.733Z,29.7
2017-10-27T01:07:54.154Z,29.7
2017-10-27T01:08:54.266Z,29.7
2017-10-27T01:09:56.229Z,29.7
2017-10-27T01:10:54.419Z,29.7
2017-10-27T01:11:54.723Z,29.7
2017-10-27T01:12:54.443Z,29.7
2017-10-27T01:13:54.797Z,29.7
2017-10-27T01:14:56.471Z,29.7
2017-10-27T01:15:54.908Z,29.7
2017-10-27T01:16:56.548Z,29.7
2017-10-27T01:17:54.677Z,29.7
2017-10-27T01:18:56.373Z,29.7
2017-10-27T01:19:55.148Z,29.7
2017-10-27T01:20:54.858Z,29.7
2017-10-27T01:21:56.844Z,29.7
2017-10-27T01:22:56.570Z,29.7
2017-10-27T01:23:56.653Z,29.7
2017-10-27T01:24:55.083Z,29.7
2017-10-27T01:25:55.324Z,29.7
2017-10-27T01:26:55.137Z,29.7
2017-10-27T01:27:55.512Z,29.7
2017-10-27T01:28:55.309Z,29.7
2017-10-27T01:29:57.320Z,29.7
2017-10-27T01:30:57.354Z,29.7
2017-10-27T01:31:57.383Z,29.7
2017-10-27T01:32:57.182Z,29.7
2017-10-27T01:33:57.527Z,29.7
2017-10-27T01:34:57.262Z,29.7
2017-10-27T01:35:57.629Z,29.7
2017-10-27T01:36:57.738Z,29.7
2017-10-27T01:37:55.844Z,29.7
2017-10-27T01:38:57.778Z,29.7
2017-10-27T01:39:55.879Z,29.7
2017-10-27T01:40:56.184Z,29.6
2017-10-27T01:41:57.531Z,29.7
2017-10-27T01:42:56.062Z,29.7
2017-10-27T01:43:57.654Z,29.7
2017-10-27T01:44:57.995Z,29.7
2017-10-27T01:45:57.741Z,29.7
2017-10-27T01:46:56.538Z,29.7
2017-10-27T01:47:56.537Z,29.7
2017-10-27T01:48:56.255Z,29.7
2017-10-27T01:49:56.332Z,29.7
2017-10-27T01:50:58.308Z,29.7
2017-10-27T01:51:58.263Z,29.7
2017-10-27T01:52:56.682Z,29.7
2017-10-27T01:53:58.039Z,29.7
2017-10-27T01:54:58.017Z,29.7
2017-10-27T01:55:58.432Z,29.6
2017-10-27T01:56:58.164Z,29.7
2017-10-27T01:57:58.541Z,29.7
2017-10-27T01:59:02.173Z,29.7
2017-10-27T01:59:58.275Z,29.7
2017-10-27T02:00:57.016Z,29.7
2017-10-27T02:01:57.182Z,29.7
2017-10-27T02:02:56.871Z,29.6
2017-10-27T02:03:57.265Z,29.7
2017-10-27T02:04:57.022Z,29.7
2017-10-27T02:05:59.008Z,29.7
2017-10-27T02:06:57.406Z,29.6
2017-10-27T02:07:57.173Z,29.6
2017-10-27T02:08:57.302Z,29.6
2017-10-27T02:09:59.204Z,29.6
2017-10-27T02:10:58.961Z,29.6
2017-10-27T02:11:57.710Z,29.7
2017-10-27T02:12:57.692Z,29.6
2017-10-27T02:13:59.412Z,29.6
2017-10-27T02:14:59.415Z,29.7
2017-10-27T02:15:59.263Z,29.7
2017-10-27T02:16:57.965Z,29.7
2017-10-27T02:17:59.588Z,29.6
2017-10-27T02:18:59.661Z,29.6
2017-10-27T02:19:59.361Z,29.6
2017-10-27T02:20:59.774Z,29.6
2017-10-27T02:21:59.407Z,29.6
2017-10-27T02:22:59.862Z,29.6
2017-10-27T02:23:59.841Z,29.6
2017-10-27T02:24:59.890Z,29.6
2017-10-27T02:25:59.947Z,29.6
2017-10-27T02:26:58.096Z,29.6
2017-10-27T02:28:00.062Z,29.6
2017-10-27T02:28:58.494Z,29.6
2017-10-27T02:29:58.582Z,29.6
2017-10-27T02:30:59.964Z,29.6
2017-10-27T02:31:59.969Z,29.6
2017-10-27T02:32:58.762Z,29.6
2017-10-27T02:33:58.508Z,29.6
2017-10-27T02:35:00.200Z,29.6
2017-10-27T02:35:59.004Z,29.6
2017-10-27T02:37:00.702Z,29.6
2017-10-27T02:37:59.115Z,29.6
2017-10-27T02:39:00.438Z,29.6
2017-10-27T02:40:00.430Z,29.6
2017-10-27T02:40:58.995Z,29.6
2017-10-27T02:41:59.016Z,29.6
2017-10-27T02:43:00.675Z,29.6
2017-10-27T02:43:59.119Z,29.6
2017-10-27T02:44:59.160Z,29.6
2017-10-27T02:45:59.471Z,29.6
2017-10-27T02:47:01.106Z,29.6
2017-10-27T02:48:01.153Z,29.6
2017-10-27T02:49:01.248Z,29.6
2017-10-27T02:49:59.373Z,29.6
2017-10-27T02:51:00.957Z,29.6
2017-10-27T02:51:59.832Z,29.6
2017-10-27T02:53:01.280Z,29.6
2017-10-27T02:54:01.208Z,29.6
2017-10-27T02:54:59.970Z,29.6
2017-10-27T02:56:01.681Z,29.6
2017-10-27T02:56:59.816Z,29.6
2017-10-27T02:58:01.792Z,29.6
2017-10-27T02:58:59.910Z,29.6
2017-10-27T03:00:00.302Z,29.6
2017-10-27T03:01:01.967Z,29.6
2017-10-27T03:02:00.294Z,29.6
2017-10-27T03:03:00.387Z,29.6
2017-10-27T03:04:02.111Z,29.6
2017-10-27T03:05:02.108Z,29.6
2017-10-27T03:06:02.138Z,29.6
2017-10-27T03:07:00.257Z,29.6
2017-10-27T03:08:00.620Z,29.6
2017-10-27T03:09:00.745Z,29.6
2017-10-27T03:10:00.513Z,29.6
2017-10-27T03:11:00.830Z,29.6
2017-10-27T03:12:00.996Z,29.6
2017-10-27T03:13:02.367Z,29.6
2017-10-27T03:14:01.044Z,29.6
2017-10-27T03:15:02.715Z,29.6
2017-10-27T03:16:01.090Z,29.6
2017-10-27T03:17:02.827Z,29.6
2017-10-27T03:18:02.569Z,29.6
2017-10-27T03:19:00.997Z,29.6
2017-10-27T03:20:02.709Z,29.6
2017-10-27T03:21:01.317Z,29.6
2017-10-27T03:22:02.962Z,29.5
2017-10-27T03:23:01.350Z,29.6
2017-10-27T03:24:03.066Z,29.6
2017-10-27T03:25:01.387Z,29.6
2017-10-27T03:26:01.176Z,29.5
2017-10-27T03:27:03.417Z,29.6
2017-10-27T03:28:01.297Z,29.6
2017-10-27T03:29:01.859Z,29.6
2017-10-27T03:30:01.660Z,29.6
2017-10-27T03:31:01.402Z,29.6
2017-10-27T03:32:03.061Z,29.6
2017-10-27T03:33:03.042Z,29.6
2017-10-27T03:34:03.133Z,29.5
2017-10-27T03:35:03.179Z,29.6
2017-10-27T03:36:03.501Z,29.6
2017-10-27T03:37:03.544Z,29.6
2017-10-27T03:38:03.270Z,29.5
2017-10-27T03:39:02.024Z,29.6
2017-10-27T03:40:03.735Z,29.6
2017-10-27T03:41:03.335Z,29.6
2017-10-27T03:42:03.479Z,29.6
2017-10-27T03:43:02.223Z,29.6
2017-10-27T03:44:03.962Z,29.6
2017-10-27T03:45:02.412Z,29.6
2017-10-27T03:46:03.687Z,29.6
2017-10-27T03:47:04.003Z,29.6
2017-10-27T03:48:02.146Z,29.6
2017-10-27T03:49:03.847Z,29.7
2017-10-27T03:50:02.352Z,29.7
2017-10-27T03:51:04.330Z,29.7
2017-10-27T03:52:02.728Z,29.7
2017-10-27T03:53:02.459Z,29.7
2017-10-27T03:54:04.043Z,29.7
2017-10-27T03:55:04.082Z,29.7
2017-10-27T03:56:02.833Z,29.7
2017-10-27T03:57:02.914Z,29.7
2017-10-27T03:58:02.813Z,29.7
2017-10-27T03:59:02.575Z,29.7
2017-10-27T04:00:04.616Z,29.7
2017-10-27T04:01:02.742Z,29.7
2017-10-27T04:02:04.389Z,29.7
2017-10-27T04:03:04.802Z,29.7
2017-10-27T04:04:04.857Z,29.7
2017-10-27T04:05:04.992Z,29.7
2017-10-27T04:06:04.964Z,29.7
2017-10-27T04:07:05.046Z,29.7
2017-10-27T04:08:03.198Z,29.7
2017-10-27T04:09:04.867Z,29.7
2017-10-27T04:10:05.198Z,29.7
2017-10-27T04:11:03.272Z,29.7
2017-10-27T04:12:05.309Z,29.7
2017-10-27T04:13:05.410Z,29.7
2017-10-27T04:14:05.185Z,29.6
2017-10-27T04:15:03.512Z,29.6
2017-10-27T04:16:03.530Z,29.5
2017-10-27T04:17:03.563Z,29.5
2017-10-27T04:18:03.974Z,29.5
2017-10-27T04:19:05.576Z,29.4
2017-10-27T04:20:04.056Z,29.4
2017-10-27T04:21:05.730Z,29.4
2017-10-27T04:22:03.876Z,29.4
2017-10-27T04:23:05.850Z,29.4
2017-10-27T04:24:04.002Z,29.4
2017-10-27T04:25:05.617Z,29.4
2017-10-27T04:26:05.640Z,29.4
2017-10-27T04:27:05.685Z,29.4
2017-10-27T04:28:04.202Z,29.4
2017-10-27T04:29:04.241Z,29.4
2017-10-27T04:30:04.343Z,29.4
2017-10-27T04:31:04.671Z,29.5
2017-10-27T04:32:04.713Z,29.5
2017-10-27T04:33:04.675Z,29.5
2017-10-27T04:34:06.433Z,29.5
2017-10-27T04:35:04.476Z,29.5
2017-10-27T04:36:06.575Z,29.5
2017-10-27T04:37:06.187Z,29.3
2017-10-27T04:38:06.217Z,29.2
2017-10-27T04:39:04.918Z,29.1
2017-10-27T04:40:04.788Z,29
2017-10-27T04:41:04.817Z,28.9
2017-10-27T04:42:06.503Z,28.8
2017-10-27T04:43:06.560Z,28.7
2017-10-27T04:44:06.627Z,28.7
2017-10-27T04:45:07.049Z,28.6
2017-10-27T04:46:07.006Z,28.7
2017-10-27T04:47:06.762Z,28.7
2017-10-27T04:48:05.205Z,28.7
2017-10-27T04:49:06.885Z,28.7
2017-10-27T04:50:05.613Z,28.6
2017-10-27T04:51:05.304Z,28.6
2017-10-27T04:52:06.946Z,28.6
2017-10-27T04:53:07.249Z,28.6
2017-10-27T04:54:07.015Z,28.6
2017-10-27T04:55:05.475Z,28.6
2017-10-27T04:56:07.033Z,28.7
2017-10-27T04:57:07.487Z,28.6
2017-10-27T04:58:05.552Z,28.5
2017-10-27T04:59:05.546Z,28.3
2017-10-27T05:00:07.203Z,28.1
2017-10-27T05:01:07.315Z,28
2017-10-27T05:02:07.742Z,27.9
2017-10-27T05:03:07.452Z,27.8
2017-10-27T05:04:05.885Z,27.7
2017-10-27T05:05:07.884Z,27.7
2017-10-27T05:06:05.933Z,27.6
2017-10-27T05:07:06.001Z,27.6
2017-10-27T05:08:07.587Z,27.5
2017-10-27T05:09:06.009Z,27.4
2017-10-27T05:10:06.118Z,27.2
2017-10-27T05:11:06.134Z,27.2
2017-10-27T05:12:06.419Z,27.1
2017-10-27T05:13:08.144Z,27.1
2017-10-27T05:14:06.503Z,27.1
2017-10-27T05:15:07.914Z,27.1
2017-10-27T05:16:08.034Z,27.1
2017-10-27T05:17:08.026Z,27.1
2017-10-27T05:18:08.020Z,27.1
2017-10-27T05:19:08.091Z,27.1
2017-10-27T05:20:08.439Z,27.1
2017-10-27T05:21:06.622Z,27.1
2017-10-27T05:22:06.967Z,27.1
2017-10-27T05:23:08.677Z,27.1
2017-10-27T05:24:08.778Z,27.2
2017-10-27T05:25:08.893Z,27.1
2017-10-27T05:26:08.971Z,26.9
2017-10-27T05:27:07.330Z,26.9
2017-10-27T05:28:09.004Z,26.9
2017-10-27T05:29:07.439Z,26.9
2017-10-27T05:30:07.201Z,26.8
2017-10-27T05:31:07.267Z,26.8
2017-10-27T05:32:08.887Z,26.6
2017-10-27T05:33:07.362Z,26.5
2017-10-27T05:34:09.359Z,26.4
2017-10-27T05:35:09.406Z,26.4
2017-10-27T05:36:09.404Z,26.4
2017-10-27T05:37:07.798Z,26.4
2017-10-27T05:38:07.490Z,26.3
2017-10-27T05:39:09.128Z,26.2
2017-10-27T05:40:09.488Z,26.1
2017-10-27T05:41:09.578Z,26
2017-10-27T05:42:07.748Z,25.9
2017-10-27T05:43:09.717Z,25.8
2017-10-27T05:44:08.024Z,25.7
2017-10-27T05:45:08.096Z,25.6
2017-10-27T05:46:08.200Z,25.5
2017-10-27T05:47:09.628Z,25.5
2017-10-27T05:48:09.851Z,25.5
2017-10-27T05:49:09.907Z,25.6
2017-10-27T05:50:08.338Z,25.9
2017-10-27T05:51:10.066Z,26.1
2017-10-27T05:52:09.718Z,26.3
2017-10-27T05:53:08.163Z,26.5
2017-10-27T05:54:10.190Z,26.8
2017-10-27T05:55:09.932Z,26.9
2017-10-27T05:56:11.019Z,27.2
2017-10-27T05:57:10.054Z,27.3
2017-10-27T05:58:10.042Z,27.5
2017-10-27T05:59:10.428Z,27.6
2017-10-27T06:00:08.849Z,27.8
2017-10-27T06:01:08.870Z,27.9
2017-10-27T06:02:10.575Z,28
2017-10-27T06:03:09.004Z,28.1
2017-10-27T06:04:08.718Z,28.2
2017-10-27T06:05:10.727Z,28.3
2017-10-27T06:06:10.719Z,28.4
2017-10-27T06:07:10.488Z,28.4
2017-10-27T06:08:10.864Z,28.5
2017-10-27T06:09:09.464Z,28.6
2017-10-27T06:10:10.999Z,28.6
2017-10-27T06:11:09.388Z,28.7
2017-10-27T06:12:09.107Z,28.7
2017-10-27T06:13:11.081Z,28.7
2017-10-27T06:14:09.428Z,28.7
2017-10-27T06:15:09.625Z,28.8
2017-10-27T06:16:09.411Z,28.9
2017-10-27T06:17:11.114Z,28.8
2017-10-27T06:18:09.414Z,28.7
2017-10-27T06:19:11.109Z,28.6
2017-10-27T06:20:11.205Z,28.6
2017-10-27T06:21:09.662Z,28.5
2017-10-27T06:22:11.538Z,28.3
2017-10-27T06:23:11.325Z,28.3
2017-10-27T06:24:11.676Z,28.3
2017-10-27T06:25:11.443Z,28.2
2017-10-27T06:26:09.947Z,28.3
2017-10-27T06:27:10.251Z,28.2
2017-10-27T06:28:10.295Z,28.2
2017-10-27T06:29:10.023Z,28.2
2017-10-27T06:30:12.082Z,28.2
2017-10-27T06:31:10.188Z,28.3
2017-10-27T06:32:11.899Z,28.3
2017-10-27T06:33:11.912Z,28.3
2017-10-27T06:34:10.274Z,28.3
2017-10-27T06:35:12.339Z,28.3
2017-10-27T06:36:12.424Z,28.3
2017-10-27T06:37:12.325Z,28.3
2017-10-27T06:38:10.688Z,28.2
2017-10-27T06:39:10.490Z,28.4
2017-10-27T06:40:10.866Z,28.3
2017-10-27T06:41:12.186Z,28.1
2017-10-27T06:42:12.299Z,27.9
2017-10-27T06:43:12.613Z,27.6
2017-10-27T06:44:10.889Z,27.3
2017-10-27T06:45:10.865Z,27.2
2017-10-27T06:46:12.945Z,27.1
2017-10-27T06:47:12.976Z,26.9
2017-10-27T06:48:11.365Z,26.6
2017-10-27T06:49:12.718Z,26.6
2017-10-27T06:50:12.738Z,26.6
2017-10-27T06:51:12.929Z,26.8
2017-10-27T06:52:13.295Z,26.9
2017-10-27T06:53:12.846Z,27.1
2017-10-27T06:54:13.385Z,27.2
2017-10-27T06:55:13.181Z,27.4
2017-10-27T06:56:13.224Z,27.6
2017-10-27T06:57:11.416Z,27.7
2017-10-27T06:58:13.503Z,27.8
2017-10-27T06:59:13.512Z,27.7
2017-10-27T07:00:11.914Z,27.6
2017-10-27T07:01:13.631Z,27.5
2017-10-27T07:02:11.732Z,27.2
2017-10-27T07:03:13.442Z,27
2017-10-27T07:04:12.209Z,26.8
2017-10-27T07:05:13.617Z,26.6
2017-10-27T07:06:13.956Z,26.5
2017-10-27T07:07:12.033Z,26.3
2017-10-27T07:08:12.095Z,26.3
2017-10-27T07:09:12.435Z,26.2
2017-10-27T07:10:12.225Z,26.2
2017-10-27T07:11:14.243Z,26.2
2017-10-27T07:12:12.650Z,26.2
2017-10-27T07:13:12.450Z,26.2
2017-10-27T07:14:14.451Z,26.2
2017-10-27T07:15:14.208Z,26.2
2017-10-27T07:16:12.946Z,26.2
2017-10-27T07:17:14.637Z,26.2
2017-10-27T07:18:14.493Z,26.2
2017-10-27T07:19:14.851Z,26.1
2017-10-27T07:20:14.506Z,26.2
2017-10-27T07:21:14.710Z,26.2
2017-10-27T07:22:13.380Z,26.2
2017-10-27T07:23:15.015Z,26.3
2017-10-27T07:24:13.505Z,26.3
2017-10-27T07:25:13.230Z,26.2
2017-10-27T07:26:13.391Z,26.3
2017-10-27T07:27:13.322Z,26.2
2017-10-27T07:28:15.283Z,26.2
2017-10-27T07:29:15.402Z,26.1
2017-10-27T07:30:15.556Z,26.1
2017-10-27T07:31:14.179Z,26.1
2017-10-27T07:32:15.198Z,26.1
2017-10-27T07:33:15.536Z,26.2
2017-10-27T07:34:15.540Z,26.3
2017-10-27T07:35:15.562Z,26.5
2017-10-27T07:36:15.580Z,26.6
2017-10-27T07:37:15.673Z,26.7
2017-10-27T07:38:13.985Z,26.7
2017-10-27T07:39:13.856Z,26.8
2017-10-27T07:40:14.305Z,26.8
2017-10-27T07:41:14.356Z,26.9
2017-10-27T07:42:13.901Z,26.9
2017-10-27T07:43:14.321Z,26.9
2017-10-27T07:44:14.362Z,27
2017-10-27T07:45:16.139Z,27.1
2017-10-27T07:46:14.185Z,27.2
2017-10-27T07:47:14.353Z,27.2
2017-10-27T07:48:16.351Z,27.4
2017-10-27T07:49:14.691Z,27.6
2017-10-27T07:50:16.481Z,27.9
2017-10-27T07:51:14.849Z,28.2
2017-10-27T07:52:14.513Z,28.4
2017-10-27T07:53:16.358Z,28.6
2017-10-27T07:54:16.580Z,28.9
2017-10-27T07:55:16.267Z,29.1
2017-10-27T07:56:16.339Z,29.2
2017-10-27T07:57:14.735Z,29.1
2017-10-27T07:58:15.096Z,28.6
2017-10-27T07:59:16.381Z,28.6
2017-10-27T08:00:16.716Z,28.4
2017-10-27T08:01:16.399Z,28.3
2017-10-27T08:02:16.750Z,28.2
2017-10-27T08:03:16.734Z,28
2017-10-27T08:04:14.941Z,27.7
2017-10-27T08:05:14.977Z,27.6
2017-10-27T08:06:16.625Z,27.5
2017-10-27T08:07:15.125Z,27.5
2017-10-27T08:08:16.736Z,27.5
2017-10-27T08:09:17.091Z,27.3
2017-10-27T08:10:15.245Z,27.2
2017-10-27T08:11:17.552Z,27.3
2017-10-27T08:12:17.205Z,27.3
2017-10-27T08:13:15.395Z,27.5
2017-10-27T08:14:17.064Z,27.6
2017-10-27T08:15:17.796Z,27.6
2017-10-27T08:16:15.568Z,27.7
2017-10-27T08:17:17.435Z,27.8
2017-10-27T08:18:15.928Z,27.9
2017-10-27T08:19:18.137Z,27.9
2017-10-27T08:20:17.481Z,27.8
2017-10-27T08:21:16.223Z,27.8
2017-10-27T08:22:16.493Z,27.6
2017-10-27T08:23:17.840Z,27.6
2017-10-27T08:24:16.305Z,27.5
2017-10-27T08:25:16.942Z,27.5
2017-10-27T08:26:17.813Z,27.4
2017-10-27T08:27:17.657Z,27.4
2017-10-27T08:28:18.002Z,27.4
2017-10-27T08:29:18.099Z,27.5
2017-10-27T08:30:16.876Z,27.5
2017-10-27T08:31:18.602Z,27.5
2017-10-27T08:32:16.759Z,27.5
2017-10-27T08:33:18.225Z,27.4
2017-10-27T08:34:16.773Z,27.3
2017-10-27T08:35:18.392Z,27.2
2017-10-27T08:36:16.486Z,27.2
2017-10-27T08:37:18.803Z,27.1
2017-10-27T08:38:16.647Z,27
2017-10-27T08:39:19.266Z,26.9
2017-10-27T08:40:18.853Z,26.9
2017-10-27T08:41:18.400Z,27
2017-10-27T08:42:18.773Z,27
2017-10-27T08:43:16.867Z,27.1
2017-10-27T08:44:17.297Z,26.9
2017-10-27T08:45:18.990Z,26.9
2017-10-27T08:46:17.451Z,26.9
2017-10-27T08:47:18.830Z,26.8
2017-10-27T08:48:19.223Z,26.8
2017-10-27T08:49:17.257Z,26.7
2017-10-27T08:50:17.728Z,26.7
2017-10-27T08:51:17.708Z,26.7
2017-10-27T08:52:19.088Z,26.9
2017-10-27T08:53:17.818Z,26.9
2017-10-27T08:54:17.919Z,27
2017-10-27T08:55:19.611Z,27
2017-10-27T08:56:17.735Z,27
2017-10-27T08:58:19.282Z,26.9
2017-10-27T08:59:17.444Z,26.8
2017-10-27T09:00:23.307Z,26.9
2017-10-27T09:02:20.243Z,27
2017-10-27T09:03:18.250Z,27
2017-10-27T09:04:18.685Z,27
2017-10-27T09:05:20.019Z,27
2017-10-27T09:06:18.372Z,27
2017-10-27T09:07:20.230Z,27
2017-10-27T09:08:19.000Z,26.9
2017-10-27T09:09:18.480Z,26.8
2017-10-27T09:10:18.905Z,26.8
2017-10-27T09:11:18.926Z,26.6
2017-10-27T09:12:21.131Z,26.7
2017-10-27T09:13:19.974Z,26.7
2017-10-27T09:14:42.245Z,26.7
2017-10-27T09:15:27.376Z,26.7
2017-10-27T09:16:18.881Z,26.6
2017-10-27T09:17:19.286Z,26.5
2017-10-27T09:18:18.977Z,26.4
2017-10-27T09:19:19.291Z,26.3
2017-10-27T09:20:21.390Z,26.2
2017-10-27T09:21:19.558Z,26.1
2017-10-27T09:22:19.569Z,26.1
2017-10-27T09:23:19.569Z,26.2
2017-10-27T09:24:21.028Z,26.4
2017-10-27T09:25:21.312Z,26.5
2017-10-27T09:26:21.089Z,26.7
2017-10-27T09:27:21.202Z,26.9
2017-10-27T09:28:19.972Z,27.1
2017-10-27T09:29:21.366Z,27.2
2017-10-27T09:30:22.226Z,27.4
2017-10-27T09:31:21.778Z,27.5
2017-10-27T09:32:20.209Z,27.7
2017-10-27T09:33:20.216Z,27.8
2017-10-27T09:34:21.931Z,28
2017-10-27T09:35:19.980Z,28.1
2017-10-27T09:36:20.349Z,28.3
2017-10-27T09:37:22.161Z,28.4
2017-10-27T09:38:22.104Z,28.5
2017-10-27T09:39:22.183Z,28.6
2017-10-27T09:40:20.675Z,28.7
2017-10-27T09:41:20.328Z,28.9
2017-10-27T09:42:20.671Z,29
2017-10-27T09:43:22.320Z,29
2017-10-27T09:44:20.867Z,29.1
2017-10-27T09:45:22.221Z,29.2
2017-10-27T09:46:22.562Z,29.3
2017-10-27T09:47:22.079Z,29.4
2017-10-27T09:48:20.960Z,29.4
2017-10-27T09:49:22.327Z,29.6
2017-10-27T09:50:22.612Z,29.6
2017-10-27T09:51:22.643Z,29.7
2017-10-27T09:52:20.958Z,29.8
2017-10-27T09:53:20.755Z,29.8
2017-10-27T09:54:21.415Z,29.8
2017-10-27T09:55:20.947Z,30
2017-10-27T09:56:21.243Z,29.9
2017-10-27T09:57:21.284Z,30.1
2017-10-27T09:58:22.664Z,30.2
2017-10-27T09:59:21.130Z,30.3
2017-10-27T10:00:21.340Z,30.3
2017-10-27T10:01:21.496Z,30.2
2017-10-27T10:02:22.903Z,30.3
2017-10-27T10:03:21.595Z,30.3
2017-10-27T10:04:23.024Z,30.4
2017-10-27T10:05:21.479Z,30.4
2017-10-27T10:06:21.847Z,30.5
2017-10-27T10:07:21.894Z,30.6
2017-10-27T10:08:23.365Z,30.6
2017-10-27T10:09:23.607Z,30.6
2017-10-27T10:10:22.097Z,30.5
2017-10-27T10:11:23.452Z,30.5
2017-10-27T10:12:22.246Z,30.5
2017-10-27T10:13:23.909Z,30.5
2017-10-27T10:14:23.633Z,30.4
2017-10-27T10:15:21.975Z,30.4
2017-10-27T10:16:23.697Z,30.4
2017-10-27T10:17:22.096Z,30.5
2017-10-27T10:18:24.941Z,30.5
2017-10-27T10:19:22.159Z,30.6
2017-10-27T10:20:24.118Z,30.6
2017-10-27T10:21:23.898Z,30.8
2017-10-27T10:22:22.370Z,30.8
2017-10-27T10:23:22.380Z,31
2017-10-27T10:24:24.332Z,31.2
2017-10-27T10:25:24.064Z,31.3
2017-10-27T10:26:24.364Z,31.4
2017-10-27T10:27:22.563Z,31.4
2017-10-27T10:28:25.175Z,31.6
2017-10-27T10:29:24.770Z,31.6
2017-10-27T10:30:24.759Z,31.6
2017-10-27T10:31:22.848Z,31.6
2017-10-27T10:32:22.982Z,31.5
2017-10-27T10:33:24.714Z,31.5
2017-10-27T10:34:24.734Z,31.6
2017-10-27T10:35:23.224Z,31.7
2017-10-27T10:36:25.800Z,31.6
2017-10-27T10:37:25.268Z,31.5
2017-10-27T10:38:24.603Z,31.5
2017-10-27T10:39:23.454Z,31.4
2017-10-27T10:40:25.120Z,31.4
2017-10-27T10:41:25.481Z,31.3
2017-10-27T10:42:25.479Z,31.5
2017-10-27T10:43:23.659Z,31.5
2017-10-27T10:44:24.088Z,31.4
2017-10-27T10:45:25.663Z,31.3
2017-10-27T10:46:24.314Z,31.2
2017-10-27T10:47:24.250Z,31.2
2017-10-27T10:48:26.593Z,31.2
2017-10-27T10:49:24.115Z,31.6
2017-10-27T10:50:24.456Z,32.3
2017-10-27T10:51:25.864Z,32.6
2017-10-27T10:52:24.193Z,32.6
2017-10-27T10:53:24.243Z,32.5
2017-10-27T10:54:26.201Z,32.4
2017-10-27T10:55:26.004Z,32.3
2017-10-27T10:56:24.727Z,32.2
2017-10-27T10:57:26.086Z,32
2017-10-27T10:58:27.119Z,32.1
2017-10-27T10:59:26.447Z,32.2
2017-10-27T11:00:26.618Z,32
2017-10-27T11:01:24.944Z,31.9
2017-10-27T11:02:26.349Z,31.7
2017-10-27T11:03:25.134Z,31.7
2017-10-27T11:04:26.859Z,31.7
2017-10-27T11:05:26.992Z,31.8
2017-10-27T11:06:27.012Z,31.7
2017-10-27T11:07:25.248Z,31.7
2017-10-27T11:08:25.621Z,31.6
2017-10-27T11:09:27.278Z,31.6
2017-10-27T11:10:25.629Z,31.5
2017-10-27T11:11:27.260Z,31.4
2017-10-27T11:12:25.447Z,31.2
2017-10-27T11:13:27.790Z,31.1
2017-10-27T11:14:25.701Z,31
2017-10-27T11:15:25.739Z,31
2017-10-27T11:16:25.790Z,31
2017-10-27T11:17:26.140Z,31
2017-10-27T11:18:28.862Z,31
2017-10-27T11:19:28.146Z,31
2017-10-27T11:20:27.846Z,31
2017-10-27T11:21:27.946Z,31
2017-10-27T11:22:27.915Z,31
2017-10-27T11:23:28.031Z,30.9
2017-10-27T11:24:27.785Z,30.8
2017-10-27T11:25:28.160Z,30.8
2017-10-27T11:26:26.533Z,30.7
2017-10-27T11:27:28.582Z,30.7
2017-10-27T11:28:26.910Z,30.6
2017-10-27T11:29:28.745Z,30.4
2017-10-27T11:30:26.790Z,30.5
2017-10-27T11:31:28.143Z,30.4
2017-10-27T11:32:26.628Z,30.4
2017-10-27T11:33:26.969Z,30.3
2017-10-27T11:34:26.698Z,30.3
2017-10-27T11:35:26.760Z,30.3
2017-10-27T11:36:28.729Z,30.3
2017-10-27T11:37:28.705Z,30.3
2017-10-27T11:38:27.875Z,30.3
2017-10-27T11:39:27.489Z,30.3
2017-10-27T11:40:28.858Z,30.3
2017-10-27T11:41:26.942Z,30.4
2017-10-27T11:42:27.049Z,30.4
2017-10-27T11:43:28.770Z,30.5
2017-10-27T11:44:28.810Z,30.5
2017-10-27T11:45:33.844Z,30.6
2017-10-27T11:46:27.368Z,30.6
2017-10-27T11:47:27.820Z,30.7
2017-10-27T11:48:29.901Z,30.8
2017-10-27T11:49:29.053Z,31.3
2017-10-27T11:50:28.970Z,32.3
2017-10-27T11:51:28.969Z,33.1
2017-10-27T11:52:27.697Z,33.9
2017-10-27T11:53:27.727Z,34.6
2017-10-27T11:54:29.432Z,34.9
2017-10-27T11:55:27.528Z,35.1
2017-10-27T11:56:27.878Z,35.4
2017-10-27T11:57:29.517Z,35.9
2017-10-27T11:58:28.725Z,36.4
2017-10-27T11:59:28.269Z,36.8
2017-10-27T12:00:28.139Z,37.1
2017-10-27T12:01:29.954Z,37.5
2017-10-27T12:02:29.463Z,37.7
2017-10-27T12:03:28.153Z,38
2017-10-27T12:04:29.633Z,38.2
2017-10-27T12:05:28.301Z,38.4
2017-10-27T12:06:30.022Z,38.6
2017-10-27T12:07:28.313Z,38.7
2017-10-27T12:08:28.419Z,38.9
2017-10-27T12:09:30.211Z,38.9
2017-10-27T12:10:30.151Z,38.4
2017-10-27T12:11:29.855Z,38.2
2017-10-27T12:12:28.735Z,38
2017-10-27T12:13:28.376Z,38.2
2017-10-27T12:14:30.404Z,38.5
2017-10-27T12:15:28.821Z,38
2017-10-27T12:16:28.966Z,37.3
2017-10-27T12:17:30.620Z,36.5
2017-10-27T12:18:28.680Z,35.9
2017-10-27T12:19:30.488Z,35.2
2017-10-27T12:20:29.035Z,34.7
2017-10-27T12:21:29.101Z,34.3
2017-10-27T12:22:29.167Z,34
2017-10-27T12:23:28.917Z,33.7
2017-10-27T12:24:29.258Z,33.4
2017-10-27T12:25:28.933Z,33.1
2017-10-27T12:26:29.258Z,32.9
2017-10-27T12:27:31.033Z,32.8
2017-10-27T12:28:31.326Z,32.6
2017-10-27T12:29:31.002Z,32.5
2017-10-27T12:30:31.064Z,32.3
2017-10-27T12:31:29.426Z,32.2
2017-10-27T12:32:31.133Z,32.1
2017-10-27T12:33:31.321Z,32
2017-10-27T12:34:31.177Z,32
2017-10-27T12:35:29.425Z,31.9
2017-10-27T12:36:29.508Z,31.8
2017-10-27T12:37:31.644Z,31.8
2017-10-27T12:38:31.320Z,31.7
2017-10-27T12:39:29.627Z,31.7
2017-10-27T12:40:31.579Z,31.6
2017-10-27T12:41:31.489Z,31.6
2017-10-27T12:42:31.773Z,31.6
2017-10-27T12:43:31.862Z,31.6
2017-10-27T12:44:31.829Z,31.5
2017-10-27T12:45:30.297Z,31.5
2017-10-27T12:46:30.039Z,31.5
2017-10-27T12:47:32.025Z,31.4
2017-10-27T12:48:32.624Z,31.3
2017-10-27T12:49:32.238Z,31.3
2017-10-27T12:50:30.201Z,31.3
2017-10-27T12:51:30.522Z,31.3
2017-10-27T12:52:30.723Z,31.2
2017-10-27T12:53:30.324Z,31.2
2017-10-27T12:54:32.229Z,31.1
2017-10-27T12:55:32.347Z,31
2017-10-27T12:56:37.652Z,30.9
2017-10-27T12:57:30.523Z,30.9
2017-10-27T12:58:31.407Z,30.8
2017-10-27T12:59:34.343Z,30.8
2017-10-27T13:00:31.061Z,30.8
2017-10-27T13:01:32.898Z,30.8
2017-10-27T13:02:32.440Z,30.8
2017-10-27T13:03:30.949Z,30.7
2017-10-27T13:04:30.955Z,30.7
2017-10-27T13:05:32.677Z,30.7
2017-10-27T13:06:33.749Z,30.7
2017-10-27T13:07:31.065Z,30.6
2017-10-27T13:08:32.478Z,30.7
2017-10-27T13:09:32.796Z,30.7
2017-10-27T13:10:31.231Z,30.7
2017-10-27T13:11:33.110Z,30.8
2017-10-27T13:12:32.795Z,30.8
2017-10-27T13:13:32.960Z,30.8
2017-10-27T13:14:31.527Z,30.8
2017-10-27T13:15:31.480Z,30.8
2017-10-27T13:16:33.453Z,30.7
2017-10-27T13:17:31.879Z,30.7
2017-10-27T13:18:32.240Z,30.7
2017-10-27T13:19:31.625Z,30.7
2017-10-27T13:20:32.359Z,30.7
2017-10-27T13:21:33.576Z,30.7
2017-10-27T13:22:33.543Z,30.7
2017-10-27T13:23:33.668Z,30.6
2017-10-27T13:24:34.004Z,30.6